sensor_id;sensor_type;location;lat;lon;timestamp;temperature;humidity
78788;DHT22;68131;52.508;5.502;2023-11-19T00:01:17;13.70;85.00
78788;DHT22;68131;52.508;5.502;2023-11-19T00:03:48;13.70;84.90
78788;DHT22;68131;52.508;5.502;2023-11-19T00:06:19;13.70;84.80
78788;DHT22;68131;52.508;5.502;2023-11-19T00:08:52;13.70;84.80
78788;DHT22;68131;52.508;5.502;2023-11-19T00:11:21;13.80;84.70
78788;DHT22;68131;52.508;5.502;2023-11-19T00:13:50;13.80;84.70
78788;DHT22;68131;52.508;5.502;2023-11-19T00:16:21;13.80;84.70
78788;DHT22;68131;52.508;5.502;2023-11-19T00:18:54;13.70;84.70
78788;DHT22;68131;52.508;5.502;2023-11-19T00:21:25;13.70;84.60
78788;DHT22;68131;52.508;5.502;2023-11-19T00:23:59;13.80;84.50
78788;DHT22;68131;52.508;5.502;2023-11-19T00:26:31;13.80;84.40
78788;DHT22;68131;52.508;5.502;2023-11-19T00:29:03;13.80;84.40
78788;DHT22;68131;52.508;5.502;2023-11-19T00:31:33;13.80;84.30
78788;DHT22;68131;52.508;5.502;2023-11-19T00:34:02;13.80;84.30
78788;DHT22;68131;52.508;5.502;2023-11-19T00:36:34;13.80;84.20
78788;DHT22;68131;52.508;5.502;2023-11-19T00:39:06;13.80;84.20
78788;DHT22;68131;52.508;5.502;2023-11-19T00:41:35;13.80;84.10
78788;DHT22;68131;52.508;5.502;2023-11-19T00:44:04;13.80;84.10
78788;DHT22;68131;52.508;5.502;2023-11-19T00:46:33;13.80;84.00
78788;DHT22;68131;52.508;5.502;2023-11-19T00:49:04;13.80;83.80
78788;DHT22;68131;52.508;5.502;2023-11-19T00:51:38;13.80;83.80
78788;DHT22;68131;52.508;5.502;2023-11-19T00:54:08;13.80;83.80
78788;DHT22;68131;52.508;5.502;2023-11-19T00:56:38;13.80;83.70
78788;DHT22;68131;52.508;5.502;2023-11-19T00:59:08;13.80;83.70
78788;DHT22;68131;52.508;5.502;2023-11-19T01:01:38;13.70;83.70
78788;DHT22;68131;52.508;5.502;2023-11-19T01:04:10;13.70;83.50
78788;DHT22;68131;52.508;5.502;2023-11-19T01:06:41;13.70;83.40
78788;DHT22;68131;52.508;5.502;2023-11-19T01:09:20;13.70;83.30
78788;DHT22;68131;52.508;5.502;2023-11-19T01:11:47;13.70;83.30
78788;DHT22;68131;52.508;5.502;2023-11-19T01:14:16;13.60;83.20
78788;DHT22;68131;52.508;5.502;2023-11-19T01:16:45;13.60;83.20
78788;DHT22;68131;52.508;5.502;2023-11-19T01:19:16;13.60;83.30
78788;DHT22;68131;52.508;5.502;2023-11-19T01:21:48;13.50;83.30
78788;DHT22;68131;52.508;5.502;2023-11-19T01:24:17;13.50;83.30
78788;DHT22;68131;52.508;5.502;2023-11-19T01:26:48;13.50;83.20
78788;DHT22;68131;52.508;5.502;2023-11-19T01:29:18;13.50;83.20
78788;DHT22;68131;52.508;5.502;2023-11-19T01:31:48;13.50;83.10
78788;DHT22;68131;52.508;5.502;2023-11-19T01:34:17;13.50;83.10
78788;DHT22;68131;52.508;5.502;2023-11-19T01:36:50;13.40;83.00
78788;DHT22;68131;52.508;5.502;2023-11-19T01:39:19;13.40;83.10
78788;DHT22;68131;52.508;5.502;2023-11-19T01:41:51;13.40;83.00
78788;DHT22;68131;52.508;5.502;2023-11-19T01:44:22;13.40;83.10
78788;DHT22;68131;52.508;5.502;2023-11-19T01:46:51;13.40;83.10
78788;DHT22;68131;52.508;5.502;2023-11-19T01:49:23;13.40;83.10
78788;DHT22;68131;52.508;5.502;2023-11-19T01:51:55;13.40;83.00
78788;DHT22;68131;52.508;5.502;2023-11-19T01:54:26;13.40;83.00
78788;DHT22;68131;52.508;5.502;2023-11-19T01:56:57;13.40;83.00
78788;DHT22;68131;52.508;5.502;2023-11-19T01:59:27;13.40;83.10
78788;DHT22;68131;52.508;5.502;2023-11-19T02:01:56;13.40;83.10
78788;DHT22;68131;52.508;5.502;2023-11-19T02:04:31;13.40;83.10
78788;DHT22;68131;52.508;5.502;2023-11-19T02:07:03;13.40;83.00
78788;DHT22;68131;52.508;5.502;2023-11-19T02:09:33;13.40;83.10
78788;DHT22;68131;52.508;5.502;2023-11-19T02:12:07;13.30;83.10
78788;DHT22;68131;52.508;5.502;2023-11-19T02:14:39;13.40;83.10
78788;DHT22;68131;52.508;5.502;2023-11-19T02:17:25;13.40;83.10
78788;DHT22;68131;52.508;5.502;2023-11-19T02:19:55;13.40;83.10
78788;DHT22;68131;52.508;5.502;2023-11-19T02:22:32;13.40;83.10
78788;DHT22;68131;52.508;5.502;2023-11-19T02:25:06;13.40;83.10
78788;DHT22;68131;52.508;5.502;2023-11-19T02:27:46;13.40;83.00
78788;DHT22;68131;52.508;5.502;2023-11-19T02:30:21;13.40;82.90
78788;DHT22;68131;52.508;5.502;2023-11-19T02:32:53;13.40;83.00
78788;DHT22;68131;52.508;5.502;2023-11-19T02:35:24;13.40;82.80
78788;DHT22;68131;52.508;5.502;2023-11-19T02:37:56;13.40;82.80
78788;DHT22;68131;52.508;5.502;2023-11-19T02:40:27;13.40;82.80
78788;DHT22;68131;52.508;5.502;2023-11-19T02:43:02;13.40;82.90
78788;DHT22;68131;52.508;5.502;2023-11-19T02:45:32;13.40;82.80
78788;DHT22;68131;52.508;5.502;2023-11-19T02:48:02;13.30;82.60
78788;DHT22;68131;52.508;5.502;2023-11-19T02:50:35;13.30;82.50
78788;DHT22;68131;52.508;5.502;2023-11-19T02:53:13;13.30;82.40
78788;DHT22;68131;52.508;5.502;2023-11-19T02:55:46;13.30;82.30
78788;DHT22;68131;52.508;5.502;2023-11-19T02:58:21;13.30;82.30
78788;DHT22;68131;52.508;5.502;2023-11-19T03:00:51;13.30;82.10
78788;DHT22;68131;52.508;5.502;2023-11-19T03:03:24;13.20;82.10
78788;DHT22;68131;52.508;5.502;2023-11-19T03:06:03;13.20;82.10
78788;DHT22;68131;52.508;5.502;2023-11-19T03:08:34;13.20;82.10
78788;DHT22;68131;52.508;5.502;2023-11-19T03:11:05;13.20;81.90
78788;DHT22;68131;52.508;5.502;2023-11-19T03:13:37;13.20;81.90
78788;DHT22;68131;52.508;5.502;2023-11-19T03:16:07;13.20;81.50
78788;DHT22;68131;52.508;5.502;2023-11-19T03:18:37;13.10;81.50
78788;DHT22;68131;52.508;5.502;2023-11-19T03:21:09;13.10;81.50
78788;DHT22;68131;52.508;5.502;2023-11-19T03:23:38;13.10;81.40
78788;DHT22;68131;52.508;5.502;2023-11-19T03:26:08;13.10;81.30
78788;DHT22;68131;52.508;5.502;2023-11-19T03:28:44;13.10;81.30
78788;DHT22;68131;52.508;5.502;2023-11-19T03:31:15;13.10;81.30
78788;DHT22;68131;52.508;5.502;2023-11-19T03:33:44;13.10;81.30
78788;DHT22;68131;52.508;5.502;2023-11-19T03:36:13;13.00;81.20
78788;DHT22;68131;52.508;5.502;2023-11-19T03:38:45;13.00;81.20
78788;DHT22;68131;52.508;5.502;2023-11-19T03:41:15;13.00;81.30
78788;DHT22;68131;52.508;5.502;2023-11-19T03:43:50;12.90;81.10
78788;DHT22;68131;52.508;5.502;2023-11-19T03:46:23;13.00;81.10
78788;DHT22;68131;52.508;5.502;2023-11-19T03:48:53;12.90;80.90
78788;DHT22;68131;52.508;5.502;2023-11-19T03:51:23;12.90;80.80
78788;DHT22;68131;52.508;5.502;2023-11-19T03:53:52;13.00;80.90
78788;DHT22;68131;52.508;5.502;2023-11-19T03:56:25;13.00;80.60
78788;DHT22;68131;52.508;5.502;2023-11-19T03:58:56;13.00;80.70
78788;DHT22;68131;52.508;5.502;2023-11-19T04:01:26;13.00;80.70
78788;DHT22;68131;52.508;5.502;2023-11-19T04:03:57;13.00;80.50
78788;DHT22;68131;52.508;5.502;2023-11-19T04:06:27;13.00;80.60
78788;DHT22;68131;52.508;5.502;2023-11-19T04:08:56;13.00;80.50
78788;DHT22;68131;52.508;5.502;2023-11-19T04:11:26;13.00;80.50
78788;DHT22;68131;52.508;5.502;2023-11-19T04:13:58;13.00;80.50
78788;DHT22;68131;52.508;5.502;2023-11-19T04:16:34;13.00;80.50
78788;DHT22;68131;52.508;5.502;2023-11-19T04:19:03;13.00;80.50
78788;DHT22;68131;52.508;5.502;2023-11-19T04:21:32;13.00;80.40
78788;DHT22;68131;52.508;5.502;2023-11-19T04:24:03;13.00;80.30
78788;DHT22;68131;52.508;5.502;2023-11-19T04:26:34;13.10;80.20
78788;DHT22;68131;52.508;5.502;2023-11-19T04:29:08;13.10;80.00
78788;DHT22;68131;52.508;5.502;2023-11-19T04:31:38;13.00;79.80
78788;DHT22;68131;52.508;5.502;2023-11-19T04:34:08;13.10;79.70
78788;DHT22;68131;52.508;5.502;2023-11-19T04:36:38;13.00;79.50
78788;DHT22;68131;52.508;5.502;2023-11-19T04:39:07;13.10;79.50
78788;DHT22;68131;52.508;5.502;2023-11-19T04:41:46;13.10;79.30
78788;DHT22;68131;52.508;5.502;2023-11-19T04:44:18;13.10;79.20
78788;DHT22;68131;52.508;5.502;2023-11-19T04:46:49;13.10;79.00
78788;DHT22;68131;52.508;5.502;2023-11-19T04:49:19;13.10;79.00
78788;DHT22;68131;52.508;5.502;2023-11-19T04:51:48;13.00;79.00
78788;DHT22;68131;52.508;5.502;2023-11-19T04:54:18;13.00;78.90
78788;DHT22;68131;52.508;5.502;2023-11-19T04:56:50;13.00;79.00
78788;DHT22;68131;52.508;5.502;2023-11-19T04:59:23;13.00;78.90
78788;DHT22;68131;52.508;5.502;2023-11-19T05:01:53;13.00;79.00
78788;DHT22;68131;52.508;5.502;2023-11-19T05:04:24;12.90;79.10
78788;DHT22;68131;52.508;5.502;2023-11-19T05:06:53;12.90;78.90
78788;DHT22;68131;52.508;5.502;2023-11-19T05:09:22;12.90;78.90
78788;DHT22;68131;52.508;5.502;2023-11-19T05:11:54;12.90;78.90
78788;DHT22;68131;52.508;5.502;2023-11-19T05:14:28;12.80;78.90
78788;DHT22;68131;52.508;5.502;2023-11-19T05:16:58;12.80;79.00
78788;DHT22;68131;52.508;5.502;2023-11-19T05:19:31;12.80;79.00
78788;DHT22;68131;52.508;5.502;2023-11-19T05:22:00;12.80;79.00
78788;DHT22;68131;52.508;5.502;2023-11-19T05:24:31;12.80;79.00
78788;DHT22;68131;52.508;5.502;2023-11-19T05:27:03;12.80;79.10
78788;DHT22;68131;52.508;5.502;2023-11-19T05:29:35;12.80;78.90
78788;DHT22;68131;52.508;5.502;2023-11-19T05:32:05;12.80;78.90
78788;DHT22;68131;52.508;5.502;2023-11-19T05:34:34;12.80;78.90
78788;DHT22;68131;52.508;5.502;2023-11-19T05:37:05;12.90;78.70
78788;DHT22;68131;52.508;5.502;2023-11-19T05:39:36;12.90;78.70
78788;DHT22;68131;52.508;5.502;2023-11-19T05:42:08;12.90;78.60
78788;DHT22;68131;52.508;5.502;2023-11-19T05:44:40;12.90;78.50
78788;DHT22;68131;52.508;5.502;2023-11-19T05:47:10;12.90;78.50
78788;DHT22;68131;52.508;5.502;2023-11-19T05:49:39;12.90;78.40
78788;DHT22;68131;52.508;5.502;2023-11-19T05:52:10;12.90;78.30
78788;DHT22;68131;52.508;5.502;2023-11-19T05:54:39;12.90;78.20
78788;DHT22;68131;52.508;5.502;2023-11-19T05:57:08;12.90;78.10
78788;DHT22;68131;52.508;5.502;2023-11-19T05:59:42;12.90;78.10
78788;DHT22;68131;52.508;5.502;2023-11-19T06:02:11;12.90;78.10
78788;DHT22;68131;52.508;5.502;2023-11-19T06:04:41;12.80;78.00
78788;DHT22;68131;52.508;5.502;2023-11-19T06:07:14;12.80;78.00
78788;DHT22;68131;52.508;5.502;2023-11-19T06:09:43;12.80;78.00
78788;DHT22;68131;52.508;5.502;2023-11-19T06:12:13;12.70;77.80
78788;DHT22;68131;52.508;5.502;2023-11-19T06:14:46;12.70;77.90
78788;DHT22;68131;52.508;5.502;2023-11-19T06:17:15;12.70;77.60
78788;DHT22;68131;52.508;5.502;2023-11-19T06:19:49;12.70;77.40
78788;DHT22;68131;52.508;5.502;2023-11-19T06:22:23;12.60;77.40
78788;DHT22;68131;52.508;5.502;2023-11-19T06:24:57;12.60;77.20
78788;DHT22;68131;52.508;5.502;2023-11-19T06:27:27;12.60;77.20
78788;DHT22;68131;52.508;5.502;2023-11-19T06:30:02;12.60;77.40
78788;DHT22;68131;52.508;5.502;2023-11-19T06:32:31;12.50;77.30
78788;DHT22;68131;52.508;5.502;2023-11-19T06:35:03;12.50;77.40
78788;DHT22;68131;52.508;5.502;2023-11-19T06:37:35;12.50;77.30
78788;DHT22;68131;52.508;5.502;2023-11-19T06:40:09;12.50;77.30
78788;DHT22;68131;52.508;5.502;2023-11-19T06:42:39;12.50;77.50
78788;DHT22;68131;52.508;5.502;2023-11-19T06:45:11;12.40;77.40
78788;DHT22;68131;52.508;5.502;2023-11-19T06:47:40;12.40;77.30
78788;DHT22;68131;52.508;5.502;2023-11-19T06:50:11;12.40;77.40
78788;DHT22;68131;52.508;5.502;2023-11-19T06:52:42;12.40;77.40
78788;DHT22;68131;52.508;5.502;2023-11-19T06:55:15;12.40;77.20
78788;DHT22;68131;52.508;5.502;2023-11-19T06:57:44;12.40;77.20
78788;DHT22;68131;52.508;5.502;2023-11-19T07:00:17;12.40;77.20
78788;DHT22;68131;52.508;5.502;2023-11-19T07:02:48;12.40;77.30
78788;DHT22;68131;52.508;5.502;2023-11-19T07:05:19;12.50;77.30
78788;DHT22;68131;52.508;5.502;2023-11-19T07:07:50;12.50;77.30
78788;DHT22;68131;52.508;5.502;2023-11-19T07:10:27;12.50;77.40
78788;DHT22;68131;52.508;5.502;2023-11-19T07:12:58;12.50;77.30
78788;DHT22;68131;52.508;5.502;2023-11-19T07:15:32;12.50;77.30
78788;DHT22;68131;52.508;5.502;2023-11-19T07:18:03;12.50;77.20
78788;DHT22;68131;52.508;5.502;2023-11-19T07:20:33;12.50;77.10
78788;DHT22;68131;52.508;5.502;2023-11-19T07:23:08;12.50;77.00
78788;DHT22;68131;52.508;5.502;2023-11-19T07:25:39;12.50;77.00
78788;DHT22;68131;52.508;5.502;2023-11-19T07:28:15;12.60;76.90
78788;DHT22;68131;52.508;5.502;2023-11-19T07:30:47;12.60;77.00
78788;DHT22;68131;52.508;5.502;2023-11-19T07:33:16;12.60;77.00
78788;DHT22;68131;52.508;5.502;2023-11-19T07:35:46;12.60;76.90
78788;DHT22;68131;52.508;5.502;2023-11-19T07:38:15;12.60;76.80
78788;DHT22;68131;52.508;5.502;2023-11-19T07:40:49;12.70;76.90
78788;DHT22;68131;52.508;5.502;2023-11-19T07:43:21;12.70;76.90
78788;DHT22;68131;52.508;5.502;2023-11-19T07:45:53;12.70;76.90
78788;DHT22;68131;52.508;5.502;2023-11-19T07:48:25;12.70;76.70
78788;DHT22;68131;52.508;5.502;2023-11-19T07:50:54;12.80;76.70
78788;DHT22;68131;52.508;5.502;2023-11-19T07:53:26;12.80;76.70
78788;DHT22;68131;52.508;5.502;2023-11-19T07:55:56;12.80;76.80
78788;DHT22;68131;52.508;5.502;2023-11-19T07:58:25;12.90;76.70
78788;DHT22;68131;52.508;5.502;2023-11-19T08:00:57;12.90;76.60
78788;DHT22;68131;52.508;5.502;2023-11-19T08:03:28;12.90;76.30
78788;DHT22;68131;52.508;5.502;2023-11-19T08:06:00;12.90;76.30
78788;DHT22;68131;52.508;5.502;2023-11-19T08:08:30;13.00;76.30
78788;DHT22;68131;52.508;5.502;2023-11-19T08:11:04;13.00;76.30
78788;DHT22;68131;52.508;5.502;2023-11-19T08:13:36;13.00;76.30
78788;DHT22;68131;52.508;5.502;2023-11-19T08:16:14;13.00;76.10
78788;DHT22;68131;52.508;5.502;2023-11-19T08:18:50;13.10;75.90
78788;DHT22;68131;52.508;5.502;2023-11-19T08:21:22;13.10;75.70
78788;DHT22;68131;52.508;5.502;2023-11-19T08:23:53;13.10;75.70
78788;DHT22;68131;52.508;5.502;2023-11-19T08:26:26;13.10;75.80
78788;DHT22;68131;52.508;5.502;2023-11-19T08:28:55;13.10;75.60
78788;DHT22;68131;52.508;5.502;2023-11-19T08:31:29;13.20;75.60
78788;DHT22;68131;52.508;5.502;2023-11-19T08:34:01;13.20;75.40
78788;DHT22;68131;52.508;5.502;2023-11-19T08:36:30;13.20;75.30
78788;DHT22;68131;52.508;5.502;2023-11-19T08:38:59;13.30;75.30
78788;DHT22;68131;52.508;5.502;2023-11-19T08:41:29;13.30;75.50
78788;DHT22;68131;52.508;5.502;2023-11-19T08:43:58;13.40;75.20
78788;DHT22;68131;52.508;5.502;2023-11-19T08:46:32;13.40;74.70
78788;DHT22;68131;52.508;5.502;2023-11-19T08:49:01;13.40;74.20
78788;DHT22;68131;52.508;5.502;2023-11-19T08:51:34;13.40;74.40
78788;DHT22;68131;52.508;5.502;2023-11-19T08:54:06;13.50;74.10
78788;DHT22;68131;52.508;5.502;2023-11-19T08:56:36;13.50;74.00
78788;DHT22;68131;52.508;5.502;2023-11-19T08:59:10;13.50;74.30
78788;DHT22;68131;52.508;5.502;2023-11-19T09:01:41;13.60;74.00
78788;DHT22;68131;52.508;5.502;2023-11-19T09:04:14;13.60;74.00
78788;DHT22;68131;52.508;5.502;2023-11-19T09:06:51;13.70;73.90
78788;DHT22;68131;52.508;5.502;2023-11-19T09:09:21;13.70;73.70
78788;DHT22;68131;52.508;5.502;2023-11-19T09:11:52;13.80;73.70
78788;DHT22;68131;52.508;5.502;2023-11-19T09:14:21;13.80;73.60
78788;DHT22;68131;52.508;5.502;2023-11-19T09:16:54;13.80;73.80
78788;DHT22;68131;52.508;5.502;2023-11-19T09:19:27;13.80;73.80
78788;DHT22;68131;52.508;5.502;2023-11-19T09:21:59;13.90;73.20
78788;DHT22;68131;52.508;5.502;2023-11-19T09:24:28;13.90;73.40
78788;DHT22;68131;52.508;5.502;2023-11-19T09:27:00;13.90;73.40
78788;DHT22;68131;52.508;5.502;2023-11-19T09:29:32;13.90;73.30
78788;DHT22;68131;52.508;5.502;2023-11-19T09:32:05;13.80;73.40
78788;DHT22;68131;52.508;5.502;2023-11-19T09:34:34;13.90;73.20
78788;DHT22;68131;52.508;5.502;2023-11-19T09:37:04;13.80;73.30
78788;DHT22;68131;52.508;5.502;2023-11-19T09:39:34;13.80;73.40
78788;DHT22;68131;52.508;5.502;2023-11-19T09:42:03;13.90;73.50
78788;DHT22;68131;52.508;5.502;2023-11-19T09:44:38;13.80;73.50
78788;DHT22;68131;52.508;5.502;2023-11-19T09:47:11;13.80;73.80
78788;DHT22;68131;52.508;5.502;2023-11-19T09:49:44;13.90;73.70
78788;DHT22;68131;52.508;5.502;2023-11-19T09:52:23;13.80;73.60
78788;DHT22;68131;52.508;5.502;2023-11-19T09:54:52;13.80;73.50
78788;DHT22;68131;52.508;5.502;2023-11-19T09:57:21;13.80;73.50
78788;DHT22;68131;52.508;5.502;2023-11-19T09:59:58;13.80;73.40
78788;DHT22;68131;52.508;5.502;2023-11-19T10:02:31;13.80;73.60
78788;DHT22;68131;52.508;5.502;2023-11-19T10:05:04;13.80;73.60
78788;DHT22;68131;52.508;5.502;2023-11-19T10:07:34;13.80;73.60
78788;DHT22;68131;52.508;5.502;2023-11-19T10:10:05;13.90;73.70
78788;DHT22;68131;52.508;5.502;2023-11-19T10:12:35;13.90;73.50
78788;DHT22;68131;52.508;5.502;2023-11-19T10:15:05;13.90;73.50
78788;DHT22;68131;52.508;5.502;2023-11-19T10:17:38;13.90;73.50
78788;DHT22;68131;52.508;5.502;2023-11-19T10:20:09;13.90;73.60
78788;DHT22;68131;52.508;5.502;2023-11-19T10:22:38;13.90;73.80
78788;DHT22;68131;52.508;5.502;2023-11-19T10:25:24;13.90;73.70
78788;DHT22;68131;52.508;5.502;2023-11-19T10:28:00;13.90;73.50
78788;DHT22;68131;52.508;5.502;2023-11-19T10:30:31;14.00;73.60
78788;DHT22;68131;52.508;5.502;2023-11-19T10:33:07;14.00;73.70
78788;DHT22;68131;52.508;5.502;2023-11-19T10:35:53;13.90;73.50
78788;DHT22;68131;52.508;5.502;2023-11-19T10:38:23;13.90;73.50
78788;DHT22;68131;52.508;5.502;2023-11-19T10:40:54;13.90;73.60
78788;DHT22;68131;52.508;5.502;2023-11-19T10:43:27;13.90;73.80
78788;DHT22;68131;52.508;5.502;2023-11-19T10:46:11;13.80;74.00
78788;DHT22;68131;52.508;5.502;2023-11-19T10:48:44;13.80;74.20
78788;DHT22;68131;52.508;5.502;2023-11-19T10:51:13;13.80;74.20
78788;DHT22;68131;52.508;5.502;2023-11-19T10:53:49;13.80;74.00
78788;DHT22;68131;52.508;5.502;2023-11-19T10:56:20;13.70;74.00
78788;DHT22;68131;52.508;5.502;2023-11-19T10:58:55;13.70;74.00
78788;DHT22;68131;52.508;5.502;2023-11-19T11:01:29;13.70;74.10
78788;DHT22;68131;52.508;5.502;2023-11-19T11:04:23;13.70;73.90
78788;DHT22;68131;52.508;5.502;2023-11-19T11:06:54;13.70;74.00
78788;DHT22;68131;52.508;5.502;2023-11-19T11:09:26;13.70;74.10
78788;DHT22;68131;52.508;5.502;2023-11-19T11:11:55;13.70;73.80
78788;DHT22;68131;52.508;5.502;2023-11-19T11:14:32;13.70;73.70
78788;DHT22;68131;52.508;5.502;2023-11-19T11:17:05;13.70;73.30
78788;DHT22;68131;52.508;5.502;2023-11-19T11:19:38;13.80;73.50
78788;DHT22;68131;52.508;5.502;2023-11-19T11:22:07;13.80;73.30
78788;DHT22;68131;52.508;5.502;2023-11-19T11:25:05;13.80;73.20
78788;DHT22;68131;52.508;5.502;2023-11-19T11:27:56;13.90;73.00
78788;DHT22;68131;52.508;5.502;2023-11-19T11:30:35;13.90;73.00
78788;DHT22;68131;52.508;5.502;2023-11-19T11:33:25;13.90;73.00
78788;DHT22;68131;52.508;5.502;2023-11-19T11:36:07;13.90;73.00
78788;DHT22;68131;52.508;5.502;2023-11-19T11:38:40;13.90;73.00
78788;DHT22;68131;52.508;5.502;2023-11-19T11:41:23;13.90;72.90
78788;DHT22;68131;52.508;5.502;2023-11-19T11:43:55;13.90;72.80
78788;DHT22;68131;52.508;5.502;2023-11-19T11:46:54;13.90;72.80
78788;DHT22;68131;52.508;5.502;2023-11-19T11:49:28;13.90;72.80
78788;DHT22;68131;52.508;5.502;2023-11-19T11:52:04;13.90;72.60
78788;DHT22;68131;52.508;5.502;2023-11-19T11:54:34;14.00;72.70
78788;DHT22;68131;52.508;5.502;2023-11-19T11:57:13;14.10;72.50
78788;DHT22;68131;52.508;5.502;2023-11-19T11:59:53;14.10;72.60
78788;DHT22;68131;52.508;5.502;2023-11-19T12:02:22;14.10;72.10
78788;DHT22;68131;52.508;5.502;2023-11-19T12:04:52;14.20;71.90
78788;DHT22;68131;52.508;5.502;2023-11-19T12:07:25;14.20;71.70
78788;DHT22;68131;52.508;5.502;2023-11-19T12:10:06;14.20;71.60
78788;DHT22;68131;52.508;5.502;2023-11-19T12:12:38;14.20;71.90
78788;DHT22;68131;52.508;5.502;2023-11-19T12:15:08;14.20;71.90
78788;DHT22;68131;52.508;5.502;2023-11-19T12:17:47;14.20;71.70
78788;DHT22;68131;52.508;5.502;2023-11-19T12:20:21;14.20;71.20
78788;DHT22;68131;52.508;5.502;2023-11-19T12:22:56;14.20;71.10
78788;DHT22;68131;52.508;5.502;2023-11-19T12:25:25;14.20;70.80
78788;DHT22;68131;52.508;5.502;2023-11-19T12:27:55;14.20;71.10
78788;DHT22;68131;52.508;5.502;2023-11-19T12:30:32;14.20;71.20
78788;DHT22;68131;52.508;5.502;2023-11-19T12:33:08;14.20;71.30
78788;DHT22;68131;52.508;5.502;2023-11-19T12:35:39;14.20;70.90
78788;DHT22;68131;52.508;5.502;2023-11-19T12:38:24;14.20;71.10
78788;DHT22;68131;52.508;5.502;2023-11-19T12:41:03;14.20;71.30
78788;DHT22;68131;52.508;5.502;2023-11-19T12:43:33;14.20;71.00
78788;DHT22;68131;52.508;5.502;2023-11-19T12:46:17;14.20;71.20
78788;DHT22;68131;52.508;5.502;2023-11-19T12:48:50;14.20;71.00
78788;DHT22;68131;52.508;5.502;2023-11-19T12:51:19;14.20;71.00
78788;DHT22;68131;52.508;5.502;2023-11-19T12:53:52;14.20;71.00
78788;DHT22;68131;52.508;5.502;2023-11-19T12:56:24;14.20;71.00
78788;DHT22;68131;52.508;5.502;2023-11-19T12:58:56;14.20;71.00
78788;DHT22;68131;52.508;5.502;2023-11-19T13:01:25;14.10;70.90
78788;DHT22;68131;52.508;5.502;2023-11-19T13:03:54;14.10;70.90
78788;DHT22;68131;52.508;5.502;2023-11-19T13:06:26;14.10;70.90
78788;DHT22;68131;52.508;5.502;2023-11-19T13:08:58;14.10;70.90
78788;DHT22;68131;52.508;5.502;2023-11-19T13:11:33;14.10;71.20
78788;DHT22;68131;52.508;5.502;2023-11-19T13:14:05;14.10;71.30
78788;DHT22;68131;52.508;5.502;2023-11-19T13:16:39;14.10;71.40
78788;DHT22;68131;52.508;5.502;2023-11-19T13:19:10;14.10;71.70
78788;DHT22;68131;52.508;5.502;2023-11-19T13:21:39;14.10;72.00
78788;DHT22;68131;52.508;5.502;2023-11-19T13:24:17;14.00;72.20
78788;DHT22;68131;52.508;5.502;2023-11-19T13:26:48;14.00;72.50
78788;DHT22;68131;52.508;5.502;2023-11-19T13:29:18;13.90;73.20
78788;DHT22;68131;52.508;5.502;2023-11-19T13:31:48;13.80;73.60
78788;DHT22;68131;52.508;5.502;2023-11-19T13:34:17;13.80;74.10
78788;DHT22;68131;52.508;5.502;2023-11-19T13:36:46;13.70;74.30
78788;DHT22;68131;52.508;5.502;2023-11-19T13:39:19;13.70;74.50
78788;DHT22;68131;52.508;5.502;2023-11-19T13:41:49;13.60;74.90
78788;DHT22;68131;52.508;5.502;2023-11-19T13:44:21;13.60;75.10
78788;DHT22;68131;52.508;5.502;2023-11-19T13:46:53;13.50;75.00
78788;DHT22;68131;52.508;5.502;2023-11-19T13:49:24;13.50;75.00
78788;DHT22;68131;52.508;5.502;2023-11-19T13:51:54;13.50;75.00
78788;DHT22;68131;52.508;5.502;2023-11-19T13:54:28;13.50;75.10
78788;DHT22;68131;52.508;5.502;2023-11-19T13:56:57;13.50;75.20
78788;DHT22;68131;52.508;5.502;2023-11-19T13:59:27;13.50;75.20
78788;DHT22;68131;52.508;5.502;2023-11-19T14:01:56;13.50;75.20
78788;DHT22;68131;52.508;5.502;2023-11-19T14:04:25;13.50;75.20
78788;DHT22;68131;52.508;5.502;2023-11-19T14:06:54;13.60;75.20
78788;DHT22;68131;52.508;5.502;2023-11-19T14:09:29;13.60;75.10
78788;DHT22;68131;52.508;5.502;2023-11-19T14:12:01;13.60;75.10
78788;DHT22;68131;52.508;5.502;2023-11-19T14:14:30;13.60;75.10
78788;DHT22;68131;52.508;5.502;2023-11-19T14:16:59;13.60;75.00
78788;DHT22;68131;52.508;5.502;2023-11-19T14:19:32;13.70;75.00
78788;DHT22;68131;52.508;5.502;2023-11-19T14:22:04;13.70;74.90
78788;DHT22;68131;52.508;5.502;2023-11-19T14:24:41;13.80;74.80
78788;DHT22;68131;52.508;5.502;2023-11-19T14:27:11;13.80;74.70
78788;DHT22;68131;52.508;5.502;2023-11-19T14:29:40;13.80;74.70
78788;DHT22;68131;52.508;5.502;2023-11-19T14:32:14;13.80;74.50
78788;DHT22;68131;52.508;5.502;2023-11-19T14:34:45;13.80;74.30
78788;DHT22;68131;52.508;5.502;2023-11-19T14:37:18;13.80;74.30
78788;DHT22;68131;52.508;5.502;2023-11-19T14:39:50;13.80;74.40
78788;DHT22;68131;52.508;5.502;2023-11-19T14:42:19;13.80;74.30
78788;DHT22;68131;52.508;5.502;2023-11-19T14:44:51;13.80;74.30
78788;DHT22;68131;52.508;5.502;2023-11-19T14:47:21;13.80;74.10
78788;DHT22;68131;52.508;5.502;2023-11-19T14:49:50;13.80;74.00
78788;DHT22;68131;52.508;5.502;2023-11-19T14:52:20;13.80;74.10
78788;DHT22;68131;52.508;5.502;2023-11-19T14:54:51;13.80;74.20
78788;DHT22;68131;52.508;5.502;2023-11-19T14:57:22;13.80;74.30
78788;DHT22;68131;52.508;5.502;2023-11-19T14:59:51;13.70;74.30
78788;DHT22;68131;52.508;5.502;2023-11-19T15:02:21;13.70;74.30
78788;DHT22;68131;52.508;5.502;2023-11-19T15:04:50;13.70;74.30
78788;DHT22;68131;52.508;5.502;2023-11-19T15:07:21;13.70;74.30
78788;DHT22;68131;52.508;5.502;2023-11-19T15:09:53;13.70;74.30
78788;DHT22;68131;52.508;5.502;2023-11-19T15:12:22;13.70;74.20
78788;DHT22;68131;52.508;5.502;2023-11-19T15:14:51;13.70;74.30
78788;DHT22;68131;52.508;5.502;2023-11-19T15:17:21;13.70;74.50
78788;DHT22;68131;52.508;5.502;2023-11-19T15:19:52;13.60;74.70
78788;DHT22;68131;52.508;5.502;2023-11-19T15:22:25;13.60;74.70
78788;DHT22;68131;52.508;5.502;2023-11-19T15:24:57;13.60;74.80
78788;DHT22;68131;52.508;5.502;2023-11-19T15:27:27;13.60;74.90
78788;DHT22;68131;52.508;5.502;2023-11-19T15:29:56;13.60;75.10
78788;DHT22;68131;52.508;5.502;2023-11-19T15:32:26;13.50;75.30
78788;DHT22;68131;52.508;5.502;2023-11-19T15:34:57;13.50;75.30
78788;DHT22;68131;52.508;5.502;2023-11-19T15:37:27;13.50;75.30
78788;DHT22;68131;52.508;5.502;2023-11-19T15:40:00;13.50;75.40
78788;DHT22;68131;52.508;5.502;2023-11-19T15:42:31;13.40;75.50
78788;DHT22;68131;52.508;5.502;2023-11-19T15:45:00;13.50;75.50
78788;DHT22;68131;52.508;5.502;2023-11-19T15:47:31;13.40;75.60
78788;DHT22;68131;52.508;5.502;2023-11-19T15:50:03;13.40;75.70
78788;DHT22;68131;52.508;5.502;2023-11-19T15:52:36;13.40;75.60
78788;DHT22;68131;52.508;5.502;2023-11-19T15:55:11;13.40;75.70
78788;DHT22;68131;52.508;5.502;2023-11-19T15:57:42;13.40;75.60
78788;DHT22;68131;52.508;5.502;2023-11-19T16:00:13;13.40;75.50